METAR KAKH 192354Z AUTO VRB03KT 3SM BR OVC004 01/01 A3013 RMK AO2 CIG 003V006 SLP209 60005 T00060006 10006 20000 53004 
SPECI KAKH 192343Z AUTO 00000KT 3SM BR OVC004 01/01 A3013 RMK AO2 
SPECI KAKH 192330Z AUTO 00000KT 2SM BR OVC004 00/00 A3012 RMK AO2 
METAR KAKH 192254Z AUTO 00000KT 5SM BR OVC002 01/01 A3012 RMK AO2 SLP207 P0001 T00060006 
SPECI KAKH 192246Z AUTO 00000KT 3SM BR OVC002 01/01 A3012 RMK AO2 P0001 
SPECI KAKH 192234Z AUTO 00000KT 1 3/4SM BR OVC002 01/01 A3011 RMK AO2 P0001 
SPECI KAKH 192204Z AUTO 00000KT 3SM BR OVC002 01/01 A3011 RMK AO2 
METAR KAKH 192154Z AUTO 00000KT 2 1/2SM BR OVC002 01/01 A3011 RMK AO2 SNE33 SLP202 P0001 T00060006 
SPECI KAKH 192133Z AUTO 00000KT 2 1/2SM BR OVC002 01/01 A3010 RMK AO2 SNE33 P0000 
SPECI KAKH 192111Z AUTO 00000KT 1SM -SN BR BKN002 OVC008 01/01 A3011 RMK AO2 P0000 
METAR KAKH 192054Z AUTO VRB03KT 3/4SM -SN BR SCT002 BKN008 01/01 A3012 RMK AO2 SLP204 P0001 60003 T00060006 58007 
SPECI KAKH 192009Z AUTO 00000KT 1/2SM SN FG BKN003 01/01 A3013 RMK AO2 P0000 
METAR KAKH 191954Z AUTO 00000KT 1SM -SN BR BKN003 OVC009 01/01 A3013 RMK AO2 SLP210 P0001 T00060006 
METAR KAKH 191854Z AUTO 00000KT 1 1/2SM -SN BR OVC003 01/01 A3014 RMK AO2 SLP213 P0001 T00060006 
METAR KAKH 191754Z AUTO VRB03KT 1 1/2SM -SN BR OVC003 01/01 A3014 RMK AO2 SLP211 P0001 60016 T00060006 10022 20000 58024 
SPECI KAKH 191732Z AUTO VRB04KT 1SM -SN BR OVC001 01/01 A3015 RMK AO2 P0000 
METAR KAKH 191654Z AUTO 00000KT 3/4SM -SN BR OVC003 00/00 A3019 RMK AO2 PRESFR SLP229 P0001 T00000000 
METAR KAKH 191554Z AUTO 00000KT 1SM -SN BR OVC003 01/01 A3021 RMK AO2 SLP236 P0001 T00060006 
SPECI KAKH 191525Z AUTO VRB04KT 3/4SM -SN BR VV004 01/01 A3020 RMK AO2 P0001 
SPECI KAKH 191523Z AUTO VRB03KT 3/4SM -SN BR CLR 01/01 A3020 RMK AO2 P0001 
SPECI KAKH 191519Z AUTO 00000KT 1SM -SN BR VV009 01/01 A3021 RMK AO2 P0001 
SPECI KAKH 191511Z AUTO 00000KT 1 1/2SM -SN BR SCT009 01/01 A3021 RMK AO2 P0001 
SPECI KAKH 191511Z AUTO 00000KT 1 1/2SM -SN BR SCT009 01/01 A3021 RMK AO2 P0001 
METAR KAKH 191454Z AUTO 00000KT 1SM -SN BR FEW003 OVC009 01/01 A3021 RMK AO2 SLP235 P0002 60013 T00060006 53023 
SPECI KAKH 191436Z AUTO 01004KT 3/4SM -SN BR FEW003 OVC011 01/01 A3019 RMK AO2 P0002 
SPECI KAKH 191431Z AUTO 01005KT 1SM -SN BR VV012 01/01 A3018 RMK AO2 P0002 
SPECI KAKH 191417Z AUTO 01004KT 1 3/4SM -SN BR BKN018 BKN028 01/01 A3021 RMK AO2 PRESRR P0002 
SPECI KAKH 191417Z AUTO 01004KT 1 3/4SM -SN BR BKN018 BKN028 01/01 A3021 RMK AO2 PRESRR P0002 
METAR KAKH 191354Z AUTO 10004KT 2 1/2SM -SN BR FEW018 01/01 A3017 RMK AO2 RAE31SNB31 SLP222 P0005 T00110006 
SPECI KAKH 191344Z AUTO 10004KT 2SM -SN BR CLR 01/01 A3017 RMK AO2 RAE31SNB31 P0005 
METAR KAKH 191254Z AUTO 00000KT 6SM -RA BR OVC055 02/02 A3015 RMK AO2 SLP217 P0006 T00220017 
METAR KAKH 191154Z AUTO 12004KT 8SM -RA BKN049 02/02 A3014 RMK AO2 UPB26E28 SLP212 P0002 60004 70004 T00220017 10033 20022 56002 
SPECI KAKH 191145Z AUTO 10003KT 6SM -RA BR BKN036 BKN065 02/02 A3014 RMK AO2 UPB26E28 P0002 
SPECI KAKH 191136Z AUTO 10003KT 8SM -RA BKN023 BKN041 03/02 A3015 RMK AO2 UPB26E28 P0001 
METAR KAKH 191054Z AUTO 00000KT 7SM -RA BKN055 03/02 A3015 RMK AO2 SLP213 P0002 T00280022 
METAR KAKH 190954Z AUTO 00000KT 10SM -RA OVC065 03/02 A3012 RMK AO2 RAB06 SLP203 P0000 T00280022 
METAR KAKH 190854Z AUTO 00000KT 10SM OVC060 03/01 A3014 RMK AO2 SLP212 T00330011 56008 
METAR KAKH 190754Z AUTO 00000KT 10SM OVC065 03/01 A3016 RMK AO2 SLP219 T00330011 
METAR KAKH 190654Z AUTO 00000KT 10SM CLR 03/01 A3014 RMK AO2 SLP212 T00330006 
METAR KAKH 190554Z AUTO 23003KT 10SM FEW070 03/01 A3017 RMK AO2 SLP221 60000 T00330006 10050 20033 53014 
METAR KAKH 190454Z AUTO 20003KT 10SM FEW110 04/00 A3015 RMK AO2 SLP214 T00390000 400671011 
METAR KAKH 190354Z AUTO 21003KT 10SM CLR 04/00 A3014 RMK AO2 SLP211 T00390000 
METAR KAKH 190254Z AUTO 00000KT 10SM SCT075 04/M01 A3013 RMK AO2 PRESFR SLP207 60000 T00391006 58014 
METAR KAKH 190154Z AUTO 00000KT 10SM CLR 04/M01 A3017 RMK AO2 RAB0055E19 SLP220 P0000 T00441006 
METAR KAKH 190054Z AUTO 00000KT 10SM OVC060 04/00 A3020 RMK AO2 SLP234 T00440000 
METAR KAKH 182354Z AUTO 00000KT 10SM FEW080 04/01 A3017 RMK AO2 SLP223 T00440006 10067 20044 56001 
METAR KAKH 182254Z AUTO 00000KT 10SM FEW110 05/00 A3017 RMK AO2 PRESRR SLP223 T00500000 
METAR KAKH 182154Z AUTO 00000KT 10SM CLR 06/M01 A3016 RMK AO2 SLP218 T00561011 
METAR KAKH 182054Z AUTO 00000KT 10SM CLR 06/M03 A3017 RMK AO2 SLP224 T00611028 56013 
METAR KAKH 181954Z AUTO VRB03KT 10SM CLR 06/M04 A3018 RMK AO2 SLP224 T00611039 
METAR KAKH 181854Z AUTO 00000KT 10SM CLR 06/M04 A3020 RMK AO2 SLP231 T00611039 
METAR KAKH 181754Z AUTO 00000KT 10SM CLR 06/M04 A3021 RMK AO2 SLP236 T00611044 10067 21011 58016 
METAR KAKH 181654Z AUTO 00000KT 10SM CLR 06/M05 A3023 RMK AO2 SLP242 T00611050 
METAR KAKH 181554Z AUTO VRB04KT 10SM CLR 06/M05 A3026 RMK AO2 SLP254 T00561050 
METAR KAKH 181454Z AUTO 10007KT 10SM CLR 04/M05 A3026 RMK AO2 SLP253 T00441050 50008 
METAR KAKH 181354Z AUTO 08007KT 360V110 10SM CLR 03/M04 A3029 RMK AO2 SLP262 T00331044 
METAR KAKH 181254Z AUTO 07005KT 10SM CLR 01/M04 A3025 RMK AO2 SLP249 T00061039 
METAR KAKH 181154Z AUTO 00000KT 10SM CLR M01/M04 A3024 RMK AO2 SLP245 T10111044 10022 21011 53020 
METAR KAKH 181054Z AUTO VRB04KT 10SM CLR M01/M03 A3021 RMK AO2 SLP236 T10061028 
METAR KAKH 180954Z AUTO 01004KT 10SM CLR M01/M03 A3019 RMK AO2 SLP229 T10061033 
METAR KAKH 180854Z AUTO 00000KT 10SM CLR 00/M02 A3018 RMK AO2 SLP224 T00001022 51014 
METAR KAKH 180754Z AUTO 01003KT 10SM CLR 02/M03 A3017 RMK AO2 SLP220 T00171033 
METAR KAKH 180654Z AUTO 01005KT 10SM CLR 02/M04 A3016 RMK AO2 SLP217 T00221039 
METAR KAKH 180554Z AUTO 01004KT 10SM CLR 02/M04 A3014 RMK AO2 SLP209 T00221044 10089 20006 51015 
METAR KAKH 180454Z AUTO 01004KT 10SM CLR 03/M04 A3012 RMK AO2 SLP205 T00281044 401170006 
METAR KAKH 180354Z AUTO 34003KT 10SM CLR 03/M05 A3011 RMK AO2 SLP199 T00331050 
METAR KAKH 180254Z AUTO 36007KT 10SM CLR 04/M04 A3009 RMK AO2 SLP193 T00441044 51026 
METAR KAKH 180154Z AUTO VRB03KT 10SM CLR 06/M04 A3007 RMK AO2 SLP185 T00561044 
METAR KAKH 180054Z AUTO VRB03KT 10SM CLR 08/M04 A3004 RMK AO2 SLP176 T00781039 
METAR KAKH 172354Z AUTO VRB03KT 10SM CLR 09/M02 A3001 RMK AO2 SLP165 T00891017 10117 20089 53026 
METAR KAKH 172254Z AUTO 00000KT 10SM CLR 09/02 A2998 RMK AO2 SLP155 T00890022 
METAR KAKH 172154Z AUTO 00000KT 10SM CLR 11/08 A2995 RMK AO2 SLP145 T01060078 
METAR KAKH 172054Z AUTO 00000KT 10SM CLR 11/08 A2994 RMK AO2 SLP138 T01110078 53010 
METAR KAKH 171954Z AUTO 22004KT 10SM CLR 11/08 A2992 RMK AO2 SLP133 T01110078 
METAR KAKH 171854Z AUTO 00000KT 10SM CLR 11/08 A2991 RMK AO2 SLP131 T01110083 
SPECI KAKH 171810Z AUTO 22003KT 10SM SCT013 11/09 A2990 RMK AO2 
METAR KAKH 171754Z AUTO 23004KT 10SM BKN013 11/09 A2990 RMK AO2 SLP128 T01060089 10111 20072 56005 
METAR KAKH 171654Z AUTO 00000KT 10SM CLR 11/09 A2991 RMK AO2 SLP129 T01060089 
SPECI KAKH 171605Z AUTO 00000KT 9SM SCT007 10/08 A2992 RMK AO2 
METAR KAKH 171554Z AUTO 00000KT 8SM BKN007 10/08 A2991 RMK AO2 SLP129 T01000083 
SPECI KAKH 171531Z AUTO 00000KT 8SM BKN007 09/09 A2992 RMK AO2 
SPECI KAKH 171504Z AUTO 00000KT 7SM OVC005 09/09 A2992 RMK AO2 CIG 003V008 
METAR KAKH 171454Z AUTO 00000KT 6SM BR OVC003 09/08 A2992 RMK AO2 SLP133 T00890083 53015 
SPECI KAKH 171406Z AUTO 22004KT 3SM BR OVC003 08/08 A2991 RMK AO2 
METAR KAKH 171354Z AUTO 00000KT 2 1/2SM BR OVC003 08/08 A2990 RMK AO2 SLP126 T00780078 
METAR KAKH 171254Z AUTO VRB03KT 2 1/2SM BR OVC003 08/08 A2990 RMK AO2 SLP126 T00780078 
SPECI KAKH 171244Z AUTO 00000KT 2 1/2SM BR OVC003 08/08 A2989 RMK AO2 
METAR KAKH 171154Z AUTO 21004KT 4SM BR OVC003 07/07 A2988 RMK AO2 SLP119 60015 70027 T00720072 10072 20067 53002 
METAR KAKH 171054Z AUTO 23003KT 5SM BR OVC005 07/07 A2987 RMK AO2 RAB09E40 SLP116 P0000 T00720072 
METAR KAKH 170854Z AUTO 22004KT 5SM BR OVC005 07/07 A2987 RMK AO2 RAE41 CIG 003V008 SLP116 P0007 60014 T00720072 55010 
SPECI KAKH 170831Z AUTO 21003KT 4SM RA BR BKN005 BKN022 OVC038 07/07 A2986 RMK AO2 P0007 
SPECI KAKH 170813Z AUTO 21005KT 4SM -RA BR FEW005 SCT022 OVC036 07/07 A2986 RMK AO2 P0005 
SPECI KAKH 170806Z AUTO 20004KT 2 1/2SM RA BR SCT024 OVC036 07/07 A2987 RMK AO2 P0005 
METAR KAKH 170754Z AUTO 21007KT 2 1/2SM RA BR FEW020 BKN025 OVC033 07/07 A2987 RMK AO2 RAB0657 SLP115 P0006 T00670067 
METAR KAKH 170654Z AUTO 00000KT 5SM BR OVC021 07/07 A2987 RMK AO2 RAE35 SLP117 P0001 T00670067 
SPECI KAKH 170605Z AUTO 21003KT 6SM -RA BR FEW009 OVC021 07/06 A2990 RMK AO2 P0000 
METAR KAKH 170554Z AUTO 22004KT 6SM -RA BR OVC021 07/06 A2990 RMK AO2 SLP127 P0003 60011 T00670061 10078 20067 56020 
SPECI KAKH 170524Z AUTO 22006KT 7SM -RA BKN021 OVC050 07/06 A2990 RMK AO2 P0001